Dali — 9V5283 — position and weather

sailwx.info

Track history (hours):
 
Tides and Currents Weather Stations Pressure Air Temp Water Temp Dewpoint Dewpoint Depression Visibility Wind Speed Wind Dir Waves Ship Positions

Dali

Last reported at 2018-Jan-18 06:17 UTC. Time now 2018-Jan-18 07:54 UTC.
Position N 35°58' W 005°41'.

Length 300 m; draft 12.8 m.

Type: Cargo ship. MMSI: 563004200.

Date/timePositionNaut miles runAvg speedWind from/ knotsBaromVisibWave heightAir tempDewpointWater temp
2018-Jan-18 06:17N 35°58' W 005°41'310.3
2018-Jan-18 06:01N 35°58' W 005°38'510.7
2018-Jan-18 05:31N 35°59' W 005°31'612.2
2018-Jan-18 05:01N 36°01' W 005°24'612.6
2018-Jan-18 04:30N 36°02' W 005°17'611.5
2018-Jan-18 04:00N 36°03' W 005°10'612.7
2018-Jan-18 03:31N 36°00' W 005°03'713.5
2018-Jan-18 03:01N 35°57' W 004°55'713.8
2018-Jan-18 02:30N 35°54' W 004°48'  
2018-Jan-12 14:55N 36°37' E 013°60'819.2
2018-Jan-12 14:30N 36°35' E 014°09'1019.2
2018-Jan-12 14:00N 36°33' E 014°21'918.9
2018-Jan-12 13:30N 36°29' E 014°32'918.4
2018-Jan-12 13:00N 36°27' E 014°43'918.6
2018-Jan-12 12:30N 36°23' E 014°53'  
Track history (hours):
 
Tides and Currents Weather Stations Pressure Air Temp Water Temp Dewpoint Dewpoint Depression Visibility Wind Speed Wind Dir Waves Ship Positions

Dali

Last reported at 2018-Jan-18 06:17 UTC. Time now 2018-Jan-18 07:54 UTC.
Position N 35°58' W 005°41'.

Length 300 m; draft 12.8 m.

Type: Cargo ship. MMSI: 563004200.

Date/timePositionNaut miles runAvg speedWind from/ knotsBaromVisibWave heightAir tempDewpointWater temp
2018-Jan-18 06:17N 35°58' W 005°41'310.3
2018-Jan-18 06:01N 35°58' W 005°38'510.7
2018-Jan-18 05:31N 35°59' W 005°31'612.2
2018-Jan-18 05:01N 36°01' W 005°24'612.6
2018-Jan-18 04:30N 36°02' W 005°17'611.5
2018-Jan-18 04:00N 36°03' W 005°10'612.7
2018-Jan-18 03:31N 36°00' W 005°03'713.5
2018-Jan-18 03:01N 35°57' W 004°55'713.8
2018-Jan-18 02:30N 35°54' W 004°48'  
2018-Jan-12 14:55N 36°37' E 013°60'819.2
2018-Jan-12 14:30N 36°35' E 014°09'1019.2
2018-Jan-12 14:00N 36°33' E 014°21'918.9
2018-Jan-12 13:30N 36°29' E 014°32'918.4
2018-Jan-12 13:00N 36°27' E 014°43'918.6
2018-Jan-12 12:30N 36°23' E 014°53'  

Dump ship's entire track history